Terminal Aerodrome Forecast
Issued by NWS

Home | Current Version | Previous Version | Graphics & Text | Print | Product List | Glossary On
Versions: 1 2 3 4 5 6 7 8 9 10 11 12 13 14 15 16 17 18
850
FTUS43 KBIS 210127 AAA
TAFDIK
TAF AMD
KDIK 210127Z 2101/2124 19011KT P6SM SCT250
     FM210800 20006KT P6SM SCT100 BKN150
     FM211100 26005KT P6SM BKN120
     FM211500 31011KT P6SM SCT120 SCT180=

USA.gov is the U.S. government's official web portal to all federal, state and local government web resources and services.